Grace, Kentucky
Current Conditions -  °F | °C
As of 9:53 AM on Monday 22 Dec 2014 (Local Time) from KLOZ Reporting Station
Overcast Overcast  
Wind Chill: 48°   Ceiling: 3800
Heat Index: 48°   Visibility: 10mi
Dew Point: 38°   Wind: 3mph
Humidity: 68%   Direction: 140°SE
Pressure: 29.99"   Gusts: NA
Location:  37.1101°N, 83.7537°W
Report Text: KLOZ 221453Z AUTO 14003KT 10SM FEW028 OVC038 09/03 A2999 RMK AO2 SLP159 T00890033 58007
Loading
Personal Weather Stations






























Interactive Weather Map New forecast layout! Learn more

10-Day Weather Forecast

Advertisements
Track Severe Weather on mobile